Alief, Texas
Current Conditions -  °F | °C
As of 10:53 PM on Sunday 19 Oct 2014 (Local Time) from KSGR Reporting Station
Clear Clear  
Wind Chill: 71°   Ceiling: Unl
Heat Index: 71°   Visibility: 10mi
Dew Point: 65°   Wind: 3mph
Humidity: 81%   Direction: 100°E
Pressure: 30.04"   Gusts: NA
Location:  29.71°N, 95.6°W
Report Text: KSGR 200353Z AUTO 10003KT 10SM CLR 22/18 A3004 RMK AO2 SLP174 T02170183
Loading
Personal Weather Stations






























Interactive Weather Map
Tropical Storm Tracking
New forecast layout! Learn more

10-Day Weather Forecast

Advertisements
Track Severe Weather on mobile